createdAt,value
2024-01-05T00:00:19.045Z,1.90
2024-01-05T00:00:48.513Z,2.00
2024-01-05T00:01:19.812Z,2.00
2024-01-05T00:01:50.476Z,2.00
2024-01-05T00:02:21.457Z,2.00
2024-01-05T00:02:52.657Z,2.00
2024-01-05T00:03:23.491Z,2.00
2024-01-05T00:03:54.763Z,2.00
2024-01-05T00:04:25.815Z,2.00
2024-01-05T00:04:56.671Z,1.80
2024-01-05T00:05:28.144Z,1.80
2024-01-05T00:05:58.694Z,1.80
2024-01-05T00:06:29.982Z,1.80
2024-01-05T00:07:01.034Z,1.80
2024-01-05T00:07:31.538Z,1.80
2024-01-05T00:08:02.768Z,1.80
2024-01-05T00:08:33.546Z,1.70
2024-01-05T00:09:04.614Z,1.70
2024-01-05T00:09:35.579Z,1.70
2024-01-05T00:10:07.193Z,1.80
2024-01-05T00:10:37.590Z,1.70
2024-01-05T00:11:08.505Z,1.80
2024-01-05T00:11:39.531Z,1.80
2024-01-05T00:12:10.856Z,1.80
2024-01-05T00:12:41.773Z,1.80
2024-01-05T00:13:12.532Z,1.80
2024-01-05T00:13:43.616Z,1.80
2024-01-05T00:14:14.588Z,1.80
2024-01-05T00:14:45.541Z,1.80
2024-01-05T00:15:17.334Z,1.80
2024-01-05T00:15:47.679Z,1.80
2024-01-05T00:16:18.559Z,1.80
2024-01-05T00:16:49.625Z,1.80
2024-01-05T00:17:20.577Z,1.80
2024-01-05T00:17:51.971Z,1.80
2024-01-05T00:18:22.821Z,1.70
2024-01-05T00:18:53.917Z,1.70
2024-01-05T00:19:24.705Z,1.70
2024-01-05T00:19:55.588Z,1.60
2024-01-05T00:20:27.808Z,1.60
2024-01-05T00:20:57.534Z,1.50
2024-01-05T00:21:28.645Z,1.50
2024-01-05T00:21:59.508Z,1.50
2024-01-05T00:22:31.181Z,1.50
2024-01-05T00:23:01.589Z,1.50
2024-01-05T00:23:32.536Z,1.50
2024-01-05T00:24:03.559Z,1.50
2024-01-05T00:24:34.578Z,1.40
2024-01-05T00:25:05.784Z,1.40
2024-01-05T00:25:36.559Z,1.40
2024-01-05T00:26:07.543Z,1.50
2024-01-05T00:26:38.583Z,1.40
2024-01-05T00:27:09.616Z,1.40
2024-01-05T00:27:40.817Z,1.40
2024-01-05T00:28:11.964Z,1.40
2024-01-05T00:28:42.564Z,1.40
2024-01-05T00:29:13.603Z,1.30
2024-01-05T00:29:44.619Z,1.30
2024-01-05T00:30:18.186Z,1.30
2024-01-05T00:30:46.666Z,1.20
2024-01-05T00:31:17.600Z,1.20
2024-01-05T00:31:48.584Z,1.20
2024-01-05T00:32:19.565Z,1.20
2024-01-05T00:32:50.666Z,1.20
2024-01-05T00:33:21.857Z,1.10
2024-01-05T00:33:52.690Z,1.10
2024-01-05T00:34:23.724Z,1.10
2024-01-05T00:34:54.643Z,1.10
2024-01-05T00:35:26.002Z,1.10
2024-01-05T00:35:56.600Z,1.10
2024-01-05T00:36:28.044Z,1.10
2024-01-05T00:36:59.086Z,1.10
2024-01-05T00:37:29.617Z,1.10
2024-01-05T00:38:00.610Z,1.10
2024-01-05T00:38:31.588Z,1.10
2024-01-05T00:39:02.649Z,1.10
2024-01-05T00:39:33.656Z,1.20
2024-01-05T00:40:04.736Z,1.20
2024-01-05T00:40:35.505Z,1.20
2024-01-05T00:41:06.636Z,1.20
2024-01-05T00:41:37.548Z,1.20
2024-01-05T00:42:08.752Z,1.20
2024-01-05T00:42:39.589Z,1.20
2024-01-05T00:43:10.706Z,1.20
2024-01-05T00:43:41.544Z,1.20
2024-01-05T00:44:12.532Z,1.20
2024-01-05T00:44:43.544Z,1.20
2024-01-05T00:45:15.552Z,1.10
2024-01-05T00:45:45.608Z,1.00
2024-01-05T00:46:16.626Z,1.00
2024-01-05T00:46:47.540Z,1.00
2024-01-05T00:47:18.777Z,1.00
2024-01-05T00:47:49.693Z,1.00
2024-01-05T00:48:20.776Z,1.00
2024-01-05T00:48:51.644Z,1.00
2024-01-05T00:49:22.597Z,1.00
2024-01-05T00:49:53.620Z,1.00
2024-01-05T00:50:24.922Z,1.00
2024-01-05T00:50:55.516Z,1.00
2024-01-05T00:51:26.542Z,.90
2024-01-05T00:51:58.532Z,.90
2024-01-05T00:52:28.932Z,.90
2024-01-05T00:52:59.550Z,.90
2024-01-05T00:53:30.505Z,.80
2024-01-05T00:54:01.791Z,.80
2024-01-05T00:54:32.615Z,.80
2024-01-05T00:55:03.753Z,.70
2024-01-05T00:55:34.552Z,.70
2024-01-05T00:56:05.552Z,.70
2024-01-05T00:56:36.526Z,.70
2024-01-05T00:57:10.727Z,.70
2024-01-05T00:57:39.042Z,.70
2024-01-05T00:58:09.524Z,.60
2024-01-05T00:58:40.513Z,.60
2024-01-05T00:59:11.545Z,.60
2024-01-05T00:59:42.522Z,.60
2024-01-05T01:00:14.520Z,.60
2024-01-05T01:00:44.702Z,.50
2024-01-05T01:01:15.566Z,.50
2024-01-05T01:01:46.724Z,.50
2024-01-05T01:02:17.528Z,.40
2024-01-05T01:02:48.969Z,.40
2024-01-05T01:03:19.579Z,.40
2024-01-05T01:03:49.925Z,.40
2024-01-05T01:04:21.043Z,.40
2024-01-05T01:04:51.859Z,.40
2024-01-05T01:05:23.319Z,.40
2024-01-05T01:05:53.871Z,.40
2024-01-05T01:06:25.233Z,.30
2024-01-05T01:06:55.856Z,.30
2024-01-05T01:07:27.061Z,.30
2024-01-05T01:07:57.956Z,.30
2024-01-05T01:08:28.960Z,.30
2024-01-05T01:09:00.052Z,.30
2024-01-05T01:09:31.092Z,.30
2024-01-05T01:10:02.381Z,.30
2024-01-05T01:10:32.970Z,.30
2024-01-05T01:11:03.987Z,.30
2024-01-05T01:11:35.546Z,.30
2024-01-05T01:12:06.001Z,.30
2024-01-05T01:12:37.063Z,.30
2024-01-05T01:13:07.964Z,.20
2024-01-05T01:13:38.984Z,.20
2024-01-05T01:14:09.945Z,.20
2024-01-05T01:14:40.974Z,.20
2024-01-05T01:15:13.124Z,.20
2024-01-05T01:15:43.010Z,.30
2024-01-05T01:16:14.011Z,.30
2024-01-05T01:16:45.061Z,.30
2024-01-05T01:17:16.297Z,.30
2024-01-05T01:17:47.242Z,.30
2024-01-05T01:18:18.198Z,.30
2024-01-05T01:18:49.186Z,.30
2024-01-05T01:19:20.284Z,.30
2024-01-05T01:19:51.292Z,.30
2024-01-05T01:20:22.832Z,.30
2024-01-05T01:20:53.112Z,.30
2024-01-05T01:21:24.134Z,.30
2024-01-05T01:21:55.016Z,.30
2024-01-05T01:22:26.130Z,.30
2024-01-05T01:22:57.074Z,.30
2024-01-05T01:23:28.937Z,.30
2024-01-05T01:23:59.146Z,.30
2024-01-05T01:24:30.163Z,.30
2024-01-05T01:25:01.658Z,.30
2024-01-05T01:25:32.037Z,.30
2024-01-05T01:26:03.139Z,.30
2024-01-05T01:26:34.064Z,.30
2024-01-05T01:27:05.347Z,.30
2024-01-05T01:27:36.106Z,.30
2024-01-05T01:28:07.068Z,.30
2024-01-05T01:28:38.069Z,.30
2024-01-05T01:29:09.327Z,.30
2024-01-05T01:29:40.086Z,.30
2024-01-05T01:30:12.933Z,.30
2024-01-05T01:30:42.254Z,.30
2024-01-05T01:31:13.192Z,.30
2024-01-05T01:31:44.070Z,.20
2024-01-05T01:32:15.407Z,.10
2024-01-05T01:32:46.096Z,.10
2024-01-05T01:33:17.295Z,0
2024-01-05T01:33:48.158Z,-.10
2024-01-05T01:34:19.148Z,-.10
2024-01-05T01:34:50.134Z,-.10
2024-01-05T01:35:21.652Z,0
2024-01-05T01:35:52.141Z,.10
2024-01-05T01:36:23.171Z,.10
2024-01-05T01:36:54.088Z,.10
2024-01-05T01:37:25.513Z,.10
2024-01-05T01:37:56.372Z,.20
2024-01-05T01:38:27.101Z,.20
2024-01-05T01:38:58.065Z,.20
2024-01-05T01:39:29.050Z,.30
2024-01-05T01:40:00.159Z,.30
2024-01-05T01:40:31.452Z,.30
2024-01-05T01:41:02.207Z,.30
2024-01-05T01:41:33.117Z,.30
2024-01-05T01:42:04.283Z,.30
2024-01-05T01:42:35.396Z,.30
2024-01-05T01:43:06.393Z,.30
2024-01-05T01:43:37.096Z,.30
2024-01-05T01:44:08.062Z,.30
2024-01-05T01:44:39.038Z,.30
2024-01-05T01:45:10.586Z,.30
2024-01-05T01:45:41.131Z,.30
2024-01-05T01:46:12.046Z,.30
2024-01-05T01:46:43.844Z,.20
2024-01-05T01:47:14.189Z,.20
2024-01-05T01:47:45.257Z,.20
2024-01-05T01:48:16.716Z,.20
2024-01-05T01:48:47.223Z,.20
2024-01-05T01:49:18.235Z,.20
2024-01-05T01:49:49.175Z,.20
2024-01-05T01:50:20.623Z,.20
2024-01-05T01:50:51.186Z,.20
2024-01-05T01:51:22.230Z,.20
2024-01-05T01:51:53.030Z,.30
2024-01-05T01:52:24.084Z,.40
2024-01-05T01:52:55.202Z,.40
2024-01-05T01:53:26.069Z,.40
2024-01-05T01:53:57.098Z,.40
2024-01-05T01:54:28.692Z,.50
2024-01-05T01:54:59.832Z,.50
2024-01-05T01:55:31.013Z,.50
2024-01-05T01:56:01.012Z,.50
2024-01-05T01:56:32.116Z,.50
2024-01-05T01:57:03.491Z,.50
2024-01-05T01:57:34.173Z,.50
2024-01-05T01:58:05.481Z,.40
2024-01-05T01:58:36.103Z,.40
2024-01-05T01:59:07.136Z,.40
2024-01-05T01:59:38.063Z,.40
2024-01-05T02:00:09.698Z,.40
2024-01-05T02:00:40.267Z,.40
2024-01-05T02:01:11.614Z,.40
2024-01-05T02:01:42.075Z,.50
2024-01-05T02:02:13.101Z,.50
2024-01-05T02:02:44.072Z,.60
2024-01-05T02:03:15.197Z,.70
2024-01-05T02:03:46.448Z,.70
2024-01-05T02:04:17.748Z,.70
2024-01-05T02:04:48.488Z,.70
2024-01-05T02:05:19.717Z,.70
2024-01-05T02:05:50.348Z,.70
2024-01-05T02:06:21.599Z,.70
2024-01-05T02:06:52.338Z,.70
2024-01-05T02:07:23.536Z,.70
2024-01-05T02:07:54.567Z,.70
2024-01-05T02:08:25.539Z,.60
2024-01-05T02:08:56.676Z,.60
2024-01-05T02:09:27.622Z,.60
2024-01-05T02:09:58.564Z,.60
2024-01-05T02:10:29.875Z,.60
2024-01-05T02:11:00.501Z,.50
2024-01-05T02:11:31.537Z,.50
2024-01-05T02:12:02.601Z,.50
2024-01-05T02:12:33.657Z,.50
2024-01-05T02:13:04.890Z,.50
2024-01-05T02:13:35.862Z,.50
2024-01-05T02:14:06.585Z,.40
2024-01-05T02:14:37.569Z,.40
2024-01-05T02:15:08.962Z,.40
2024-01-05T02:15:39.542Z,.40
2024-01-05T02:16:10.516Z,.40
2024-01-05T02:16:41.935Z,.40
2024-01-05T02:17:12.521Z,.40
2024-01-05T02:17:43.599Z,.40
2024-01-05T02:18:15.566Z,.40
2024-01-05T02:18:45.602Z,.40
2024-01-05T02:19:16.975Z,.40
2024-01-05T02:19:47.600Z,.40
2024-01-05T02:20:19.116Z,.40
2024-01-05T02:20:49.584Z,.40
2024-01-05T02:21:20.489Z,.40
2024-01-05T02:21:51.806Z,.40
2024-01-05T02:22:22.547Z,.40
2024-01-05T02:22:53.526Z,.40
2024-01-05T02:23:24.467Z,.40
2024-01-05T02:23:55.594Z,.40
2024-01-05T02:24:26.790Z,.40
2024-01-05T02:24:57.529Z,.40
2024-01-05T02:25:28.880Z,.50
2024-01-05T02:25:59.621Z,.50
2024-01-05T02:26:31.313Z,.50
2024-01-05T02:27:01.644Z,.50
2024-01-05T02:27:32.608Z,.40
2024-01-05T02:28:03.604Z,.40
2024-01-05T02:28:34.513Z,.40
2024-01-05T02:29:05.996Z,.40
2024-01-05T02:29:37.524Z,.40
2024-01-05T02:30:08.268Z,.40
2024-01-05T02:30:38.919Z,.40
2024-01-05T02:31:09.613Z,.40
2024-01-05T02:31:40.592Z,.40
2024-01-05T02:32:11.485Z,.50
2024-01-05T02:32:42.538Z,.50
2024-01-05T02:33:13.603Z,.50
2024-01-05T02:33:44.606Z,.50
2024-01-05T02:34:15.601Z,.50
2024-01-05T02:34:46.605Z,.50
2024-01-05T02:35:18.082Z,.40
2024-01-05T02:35:48.513Z,.40
2024-01-05T02:36:19.496Z,.40
2024-01-05T02:36:50.495Z,.40
2024-01-05T02:37:21.496Z,.40
2024-01-05T02:37:52.531Z,.40
2024-01-05T02:38:23.568Z,.40
2024-01-05T02:38:54.574Z,.40
2024-01-05T02:39:25.847Z,.40
2024-01-05T02:39:57.101Z,.40
2024-01-05T02:40:27.937Z,.40
2024-01-05T02:40:58.528Z,.40
2024-01-05T02:41:29.460Z,.40
2024-01-05T02:42:00.500Z,.40
2024-01-05T02:42:31.525Z,.40
2024-01-05T02:43:02.527Z,.40
2024-01-05T02:43:33.569Z,.40
2024-01-05T02:44:04.519Z,.40
2024-01-05T02:44:35.537Z,.40
2024-01-05T02:45:07.376Z,.40
2024-01-05T02:45:37.651Z,.40
2024-01-05T02:46:08.608Z,.40
2024-01-05T02:46:39.921Z,.40
2024-01-05T02:47:10.607Z,.30
2024-01-05T02:47:41.601Z,.30
2024-01-05T02:48:13.367Z,.30
2024-01-05T02:48:43.637Z,.30
2024-01-05T02:49:14.652Z,.30
2024-01-05T02:49:45.642Z,.30
2024-01-05T02:50:16.967Z,.30
2024-01-05T02:50:47.540Z,.30
2024-01-05T02:51:18.535Z,.30
2024-01-05T02:51:49.631Z,.30
2024-01-05T02:52:20.555Z,.30
2024-01-05T02:52:51.583Z,.30
2024-01-05T02:53:22.534Z,.30
2024-01-05T02:53:53.565Z,.30
2024-01-05T02:54:24.840Z,.30
2024-01-05T02:54:55.574Z,.30
2024-01-05T02:55:26.957Z,.20
2024-01-05T02:55:57.581Z,.20
2024-01-05T02:56:28.598Z,.20
2024-01-05T02:56:59.857Z,.20
2024-01-05T02:57:30.715Z,.20
2024-01-05T02:58:02.476Z,.30
2024-01-05T02:58:32.585Z,.30
2024-01-05T02:59:03.574Z,.30
2024-01-05T02:59:34.543Z,.30
2024-01-05T03:00:06.192Z,.10
2024-01-05T03:00:37.129Z,.10
2024-01-05T03:01:07.578Z,.10
2024-01-05T03:01:38.624Z,.10
2024-01-05T03:02:09.737Z,0
2024-01-05T03:02:40.535Z,0
2024-01-05T03:03:11.667Z,0
2024-01-05T03:03:42.567Z,0
2024-01-05T03:04:13.028Z,0
2024-01-05T03:04:43.888Z,0
2024-01-05T03:05:15.473Z,0
2024-01-05T03:05:46.404Z,0
2024-01-05T03:06:17.362Z,0
2024-01-05T03:06:48.310Z,0
2024-01-05T03:07:18.742Z,.10
2024-01-05T03:07:49.962Z,.10
2024-01-05T03:08:20.928Z,.10
2024-01-05T03:08:51.988Z,.10
2024-01-05T03:09:22.981Z,.20
2024-01-05T03:09:53.930Z,.20
2024-01-05T03:10:25.389Z,.20
2024-01-05T03:10:55.881Z,.30
2024-01-05T03:11:26.913Z,.30
2024-01-05T03:11:58.134Z,.30
2024-01-05T03:12:28.949Z,.30
2024-01-05T03:12:59.907Z,.30
2024-01-05T03:13:30.926Z,.30
2024-01-05T03:14:01.966Z,.30
2024-01-05T03:14:33.128Z,.30
2024-01-05T03:15:04.858Z,.30
2024-01-05T03:15:35.057Z,.30
2024-01-05T03:16:05.933Z,.30
2024-01-05T03:16:36.888Z,.30
2024-01-05T03:17:07.913Z,.30
2024-01-05T03:17:39.441Z,.20
2024-01-05T03:18:10.070Z,.20
2024-01-05T03:18:41.043Z,.20
2024-01-05T03:19:12.020Z,.20
2024-01-05T03:19:43.009Z,.20
2024-01-05T03:20:14.193Z,.20
2024-01-05T03:20:44.902Z,.20
2024-01-05T03:21:16.040Z,.20
2024-01-05T03:21:46.987Z,.20
2024-01-05T03:22:17.988Z,.20
2024-01-05T03:22:48.976Z,.20
2024-01-05T03:23:20.856Z,.20
2024-01-05T03:23:50.928Z,.20
2024-01-05T03:24:22.140Z,.20
2024-01-05T03:24:52.949Z,.20
2024-01-05T03:25:24.281Z,.20
2024-01-05T03:25:54.858Z,.20
2024-01-05T03:26:25.872Z,.20
2024-01-05T03:26:57.134Z,.20
2024-01-05T03:27:28.017Z,.20
2024-01-05T03:27:58.928Z,.10
2024-01-05T03:28:29.980Z,.10
2024-01-05T03:29:00.967Z,.10
2024-01-05T03:29:32.750Z,.10
2024-01-05T03:30:03.796Z,.10
2024-01-05T03:30:34.168Z,.10
2024-01-05T03:31:05.038Z,.10
2024-01-05T03:31:35.964Z,.10
2024-01-05T03:32:07.448Z,0
2024-01-05T03:32:38.020Z,0
2024-01-05T03:33:09.310Z,0
2024-01-05T03:33:40.183Z,0
2024-01-05T03:34:11.039Z,0
2024-01-05T03:34:41.948Z,0
2024-01-05T03:35:13.170Z,0
2024-01-05T03:35:43.956Z,-.10
2024-01-05T03:36:15.098Z,-.10
2024-01-05T03:36:46.375Z,-.10
2024-01-05T03:37:16.909Z,-.10
2024-01-05T03:37:47.927Z,-.10
2024-01-05T03:38:19.206Z,-.10
2024-01-05T03:38:49.971Z,-.10
2024-01-05T03:39:20.964Z,0
2024-01-05T03:39:51.964Z,0
2024-01-05T03:40:23.174Z,0
2024-01-05T03:40:54.333Z,0
2024-01-05T03:41:24.937Z,0
2024-01-05T03:41:55.979Z,0
2024-01-05T03:42:27.000Z,0
2024-01-05T03:42:57.901Z,0
2024-01-05T03:43:29.138Z,0
2024-01-05T03:43:59.867Z,0
2024-01-05T03:44:30.888Z,0
2024-01-05T03:45:02.505Z,0
2024-01-05T03:45:33.189Z,0
2024-01-05T03:46:03.988Z,0
2024-01-05T03:46:34.948Z,0
2024-01-05T03:47:05.880Z,0
2024-01-05T03:47:36.987Z,0
2024-01-05T03:48:08.156Z,0
2024-01-05T03:48:39.277Z,0
2024-01-05T03:49:09.932Z,0
2024-01-05T03:49:41.364Z,0
2024-01-05T03:50:12.304Z,0
2024-01-05T03:50:42.940Z,0
2024-01-05T03:51:14.191Z,0
2024-01-05T03:51:44.872Z,0
2024-01-05T03:52:15.924Z,0
2024-01-05T03:52:46.945Z,0
2024-01-05T03:53:17.982Z,0
2024-01-05T03:53:48.970Z,0
2024-01-05T03:54:20.010Z,0
2024-01-05T03:54:50.876Z,0
2024-01-05T03:55:22.440Z,0
2024-01-05T03:55:52.947Z,0
2024-01-05T03:56:23.930Z,0
2024-01-05T03:56:54.920Z,0
2024-01-05T03:57:26.031Z,0
2024-01-05T03:57:56.933Z,0
2024-01-05T03:58:28.243Z,0
2024-01-05T03:58:58.932Z,0
2024-01-05T03:59:29.944Z,0
2024-01-05T04:00:01.314Z,0
2024-01-05T04:00:31.998Z,0
2024-01-05T04:01:04.308Z,0
2024-01-05T04:01:33.936Z,0
2024-01-05T04:02:05.045Z,0
2024-01-05T04:02:35.969Z,0
2024-01-05T04:03:07.067Z,0
2024-01-05T04:03:38.802Z,0
2024-01-05T04:04:09.585Z,0
2024-01-05T04:04:40.420Z,.10
2024-01-05T04:05:11.642Z,.10
2024-01-05T04:05:42.299Z,.10
2024-01-05T04:06:13.479Z,.10
2024-01-05T04:06:44.654Z,.10
2024-01-05T04:07:15.567Z,.10
2024-01-05T04:07:46.312Z,.10
2024-01-05T04:08:17.222Z,.10
2024-01-05T04:08:48.491Z,.10
2024-01-05T04:09:19.240Z,.10
2024-01-05T04:09:50.248Z,.10
2024-01-05T04:10:21.681Z,.10
2024-01-05T04:10:52.311Z,.10
2024-01-05T04:11:23.241Z,.10
2024-01-05T04:11:54.276Z,.10
2024-01-05T04:12:25.394Z,.10
2024-01-05T04:12:56.232Z,.10
2024-01-05T04:13:27.170Z,.10
2024-01-05T04:13:58.635Z,.10
2024-01-05T04:14:29.274Z,.10
2024-01-05T04:15:01.012Z,.30
2024-01-05T04:15:32.674Z,.40
2024-01-05T04:16:02.568Z,.40
2024-01-05T04:16:33.802Z,.40
2024-01-05T04:17:04.245Z,.50
2024-01-05T04:17:35.303Z,.50
2024-01-05T04:18:06.309Z,.60
2024-01-05T04:18:37.458Z,.60
2024-01-05T04:19:08.385Z,.70
2024-01-05T04:19:39.262Z,.70
2024-01-05T04:20:10.784Z,.80
2024-01-05T04:20:41.309Z,.80
2024-01-05T04:21:12.235Z,.80
2024-01-05T04:21:43.261Z,.80
2024-01-05T04:22:14.289Z,.80
2024-01-05T04:22:45.269Z,.80
2024-01-05T04:23:16.282Z,.80
2024-01-05T04:23:47.280Z,.80
2024-01-05T04:24:18.591Z,.80
2024-01-05T04:24:49.616Z,.80
2024-01-05T04:25:20.817Z,.80
2024-01-05T04:25:51.226Z,.80
2024-01-05T04:26:22.283Z,.70
2024-01-05T04:26:53.292Z,.70
2024-01-05T04:27:24.234Z,.70
2024-01-05T04:27:55.278Z,.70
2024-01-05T04:28:26.321Z,.70
2024-01-05T04:28:57.222Z,.70
2024-01-05T04:29:28.326Z,.70
2024-01-05T04:29:59.205Z,.70
2024-01-05T04:30:31.008Z,.70
2024-01-05T04:31:01.435Z,.70
2024-01-05T04:31:32.386Z,.70
2024-01-05T04:32:03.503Z,.80
2024-01-05T04:32:35.526Z,.90
2024-01-05T04:33:05.600Z,.90
2024-01-05T04:33:37.023Z,1.00
2024-01-05T04:34:07.345Z,1.00
2024-01-05T04:34:38.443Z,1.00
2024-01-05T04:35:09.436Z,1.00
2024-01-05T04:35:40.497Z,.90
2024-01-05T04:36:11.410Z,.90
2024-01-05T04:36:42.366Z,.90
2024-01-05T04:37:13.309Z,.90
2024-01-05T04:37:44.280Z,.90
2024-01-05T04:38:15.191Z,.80
2024-01-05T04:38:46.269Z,.80
2024-01-05T04:39:17.242Z,.90
2024-01-05T04:39:48.274Z,.90
2024-01-05T04:40:19.755Z,.90
2024-01-05T04:40:50.678Z,.90
2024-01-05T04:41:21.247Z,1.00
2024-01-05T04:41:52.333Z,1.00
2024-01-05T04:42:23.871Z,1.00
2024-01-05T04:42:54.251Z,1.00
2024-01-05T04:43:25.365Z,1.00
2024-01-05T04:43:56.292Z,1.00
2024-01-05T04:44:27.271Z,1.00
2024-01-05T04:44:58.304Z,.90
2024-01-05T04:45:30.054Z,.90
2024-01-05T04:46:00.753Z,.90
2024-01-05T04:46:31.212Z,.90
2024-01-05T04:47:02.296Z,.90
2024-01-05T04:47:33.279Z,.90
2024-01-05T04:48:04.369Z,.90
2024-01-05T04:48:35.740Z,.90
2024-01-05T04:49:06.340Z,.90
2024-01-05T04:49:37.322Z,.90
2024-01-05T04:50:08.642Z,.90
2024-01-05T04:50:39.200Z,.80
2024-01-05T04:51:10.860Z,.80
2024-01-05T04:51:44.025Z,.80
2024-01-05T04:52:12.262Z,.80
2024-01-05T04:52:43.340Z,.80
2024-01-05T04:53:14.327Z,.80
2024-01-05T04:53:45.277Z,.80
2024-01-05T04:54:16.776Z,.80
2024-01-05T04:54:47.246Z,.90
2024-01-05T04:55:18.508Z,.90
2024-01-05T04:55:49.226Z,.90
2024-01-05T04:56:20.338Z,.90
2024-01-05T04:56:51.299Z,.90
2024-01-05T04:57:22.622Z,.90
2024-01-05T04:57:53.297Z,.90
2024-01-05T04:58:24.237Z,.90
2024-01-05T04:58:55.207Z,.90
2024-01-05T04:59:26.296Z,.90
2024-01-05T04:59:57.543Z,.90
2024-01-05T05:00:28.967Z,.90
2024-01-05T05:00:59.303Z,.90
2024-01-05T05:01:30.514Z,.90
2024-01-05T05:02:01.321Z,.90
2024-01-05T05:02:32.356Z,.90
2024-01-05T05:03:03.353Z,.90
2024-01-05T05:03:34.326Z,.90
2024-01-05T05:04:06.639Z,.90
2024-01-05T05:04:36.528Z,.90
2024-01-05T05:05:07.736Z,1.10
2024-01-05T05:05:38.815Z,1.10
2024-01-05T05:06:09.624Z,1.10
2024-01-05T05:06:40.662Z,1.10
2024-01-05T05:07:11.965Z,1.10
2024-01-05T05:07:42.355Z,1.10
2024-01-05T05:08:13.406Z,1.10
2024-01-05T05:08:44.758Z,1.10
2024-01-05T05:09:15.526Z,1.10
2024-01-05T05:09:46.433Z,1.10
2024-01-05T05:10:17.740Z,1.10
2024-01-05T05:10:48.399Z,1.10
2024-01-05T05:11:19.373Z,1.00
2024-01-05T05:11:50.469Z,1.00
2024-01-05T05:12:21.429Z,1.00
2024-01-05T05:12:52.634Z,1.00
2024-01-05T05:13:23.359Z,1.00
2024-01-05T05:13:54.391Z,1.00
2024-01-05T05:14:25.462Z,1.00
2024-01-05T05:14:56.444Z,1.00
2024-01-05T05:15:28.073Z,1.00
2024-01-05T05:15:58.430Z,1.00
2024-01-05T05:16:29.690Z,1.00
2024-01-05T05:17:00.618Z,1.00
2024-01-05T05:17:31.786Z,1.00
2024-01-05T05:18:02.552Z,1.00
2024-01-05T05:18:33.606Z,1.00
2024-01-05T05:19:04.473Z,1.00
2024-01-05T05:19:35.371Z,1.00
2024-01-05T05:20:06.677Z,1.00
2024-01-05T05:20:37.432Z,1.00
2024-01-05T05:21:08.397Z,1.00
2024-01-05T05:21:39.399Z,1.00
2024-01-05T05:22:10.615Z,1.00
2024-01-05T05:22:41.365Z,1.00
2024-01-05T05:23:12.390Z,1.00
2024-01-05T05:23:43.365Z,1.00
2024-01-05T05:24:14.409Z,1.00
2024-01-05T05:24:45.376Z,1.00
2024-01-05T05:25:16.735Z,1.20
2024-01-05T05:25:47.323Z,1.20
2024-01-05T05:26:18.611Z,1.30
2024-01-05T05:26:49.382Z,1.30
2024-01-05T05:27:20.456Z,1.30
2024-01-05T05:27:51.370Z,1.30
2024-01-05T05:28:22.318Z,1.30
2024-01-05T05:28:53.619Z,1.30
2024-01-05T05:29:24.375Z,1.30
2024-01-05T05:29:55.419Z,1.20
2024-01-05T05:30:27.136Z,1.20
2024-01-05T05:30:57.424Z,1.20
2024-01-05T05:31:28.496Z,1.20
2024-01-05T05:31:59.261Z,1.20
2024-01-05T05:32:30.570Z,1.30
2024-01-05T05:33:01.629Z,1.30
2024-01-05T05:33:32.529Z,1.30
2024-01-05T05:34:03.420Z,1.40
2024-01-05T05:34:34.535Z,1.40
2024-01-05T05:35:05.897Z,1.40
2024-01-05T05:35:37.340Z,1.40
2024-01-05T05:36:07.352Z,1.40
2024-01-05T05:36:38.422Z,1.50
2024-01-05T05:37:09.449Z,1.50
2024-01-05T05:37:41.310Z,1.50
2024-01-05T05:38:11.393Z,1.50
2024-01-05T05:38:42.424Z,1.30
2024-01-05T05:39:13.473Z,1.30
2024-01-05T05:39:44.396Z,1.20
2024-01-05T05:40:15.682Z,1.20
2024-01-05T05:40:46.406Z,1.20
2024-01-05T05:41:17.516Z,1.20
2024-01-05T05:41:48.402Z,1.20
2024-01-05T05:42:19.721Z,1.30
2024-01-05T05:42:50.512Z,1.30
2024-01-05T05:43:21.431Z,1.30
2024-01-05T05:43:52.741Z,1.30
2024-01-05T05:44:23.397Z,1.30
2024-01-05T05:44:54.475Z,1.30
2024-01-05T05:45:26.236Z,1.30
2024-01-05T05:45:56.526Z,1.30
2024-01-05T05:46:27.539Z,1.30
2024-01-05T05:46:58.603Z,1.30
2024-01-05T05:47:29.461Z,1.40
2024-01-05T05:48:00.499Z,1.40
2024-01-05T05:48:31.482Z,1.50
2024-01-05T05:49:02.601Z,1.50
2024-01-05T05:49:33.479Z,1.50
2024-01-05T05:50:04.692Z,1.50
2024-01-05T05:50:35.669Z,1.50
2024-01-05T05:51:06.446Z,1.50
2024-01-05T05:51:37.695Z,1.50
2024-01-05T05:52:08.440Z,1.50
2024-01-05T05:52:39.609Z,1.50
2024-01-05T05:53:10.384Z,1.50
2024-01-05T05:53:41.461Z,1.50
2024-01-05T05:54:12.636Z,1.50
2024-01-05T05:54:43.475Z,1.50
2024-01-05T05:55:14.857Z,1.50
2024-01-05T05:55:45.381Z,1.40
2024-01-05T05:56:16.668Z,1.40
2024-01-05T05:56:47.391Z,1.40
2024-01-05T05:57:18.441Z,1.30
2024-01-05T05:57:49.394Z,1.30
2024-01-05T05:58:20.397Z,1.30
2024-01-05T05:58:51.440Z,1.30
2024-01-05T05:59:22.393Z,1.40
2024-01-05T05:59:53.444Z,1.40
2024-01-05T06:00:25.277Z,1.40
2024-01-05T06:00:55.520Z,1.40
2024-01-05T06:01:26.721Z,1.40
2024-01-05T06:01:57.416Z,1.50
2024-01-05T06:02:28.426Z,1.50
2024-01-05T06:02:59.482Z,1.50
2024-01-05T06:03:30.457Z,1.50
2024-01-05T06:04:01.889Z,1.60
2024-01-05T06:04:32.806Z,1.60
2024-01-05T06:05:03.761Z,1.60
2024-01-05T06:05:34.660Z,1.60
2024-01-05T06:06:05.805Z,1.60
2024-01-05T06:06:36.740Z,1.60
2024-01-05T06:07:08.497Z,1.60
2024-01-05T06:07:38.501Z,1.50
2024-01-05T06:08:09.608Z,1.40
2024-01-05T06:08:40.486Z,1.40
2024-01-05T06:09:11.515Z,1.40
2024-01-05T06:09:42.486Z,1.40
2024-01-05T06:10:14.273Z,1.40
2024-01-05T06:10:44.511Z,1.40
2024-01-05T06:11:15.626Z,1.40
2024-01-05T06:11:46.751Z,1.40
2024-01-05T06:12:17.660Z,1.40
2024-01-05T06:12:48.544Z,1.50
2024-01-05T06:13:19.685Z,1.50
2024-01-05T06:13:50.492Z,1.50
2024-01-05T06:14:21.542Z,1.50
2024-01-05T06:14:52.701Z,1.50
2024-01-05T06:15:24.313Z,1.40
2024-01-05T06:15:54.541Z,1.40
2024-01-05T06:16:25.568Z,1.40
2024-01-05T06:16:56.535Z,1.40
2024-01-05T06:17:27.580Z,1.40
2024-01-05T06:17:58.645Z,1.40
2024-01-05T06:18:30.087Z,1.40
2024-01-05T06:19:00.774Z,1.40
2024-01-05T06:19:31.672Z,1.40
2024-01-05T06:20:02.651Z,1.40
2024-01-05T06:20:33.535Z,1.40
2024-01-05T06:21:04.563Z,1.50
2024-01-05T06:21:35.501Z,1.50
2024-01-05T06:22:06.486Z,1.50
2024-01-05T06:22:37.562Z,1.50
2024-01-05T06:23:08.630Z,1.50
2024-01-05T06:23:39.597Z,1.50
2024-01-05T06:24:10.517Z,1.50
2024-01-05T06:24:41.596Z,1.50
2024-01-05T06:25:13.202Z,1.50
2024-01-05T06:25:43.469Z,1.50
2024-01-05T06:26:14.500Z,1.50
2024-01-05T06:26:45.587Z,1.50
2024-01-05T06:27:22.325Z,1.50
2024-01-05T06:27:47.907Z,1.50
2024-01-05T06:28:18.546Z,1.40
2024-01-05T06:28:49.635Z,1.50
2024-01-05T06:29:20.524Z,1.50
2024-01-05T06:29:51.898Z,1.50
2024-01-05T06:30:23.375Z,1.50
2024-01-05T06:30:53.584Z,1.40
2024-01-05T06:31:24.735Z,1.40
2024-01-05T06:31:55.547Z,1.40
2024-01-05T06:32:26.613Z,1.40
2024-01-05T06:32:57.572Z,1.30
2024-01-05T06:33:28.658Z,1.30
2024-01-05T06:34:02.973Z,1.30
2024-01-05T06:34:30.600Z,1.20
2024-01-05T06:35:01.657Z,1.20
2024-01-05T06:35:32.616Z,1.20
2024-01-05T06:36:03.545Z,1.20
2024-01-05T06:36:35.004Z,1.20
2024-01-05T06:37:05.884Z,1.20
2024-01-05T06:37:36.518Z,1.20
2024-01-05T06:38:07.485Z,1.20
2024-01-05T06:38:40.116Z,1.20
2024-01-05T06:39:09.814Z,1.20
2024-01-05T06:39:40.528Z,1.20
2024-01-05T06:40:11.883Z,1.20
2024-01-05T06:40:42.528Z,1.20
2024-01-05T06:41:13.578Z,1.20
2024-01-05T06:41:44.885Z,1.20
2024-01-05T06:42:15.956Z,1.20
2024-01-05T06:42:46.661Z,1.20
2024-01-05T06:43:17.572Z,1.30
2024-01-05T06:43:48.600Z,1.30
2024-01-05T06:44:19.474Z,1.40
2024-01-05T06:44:50.565Z,1.40
2024-01-05T06:45:22.453Z,1.40
2024-01-05T06:45:52.601Z,1.40
2024-01-05T06:46:23.543Z,1.40
2024-01-05T06:46:54.473Z,1.30
2024-01-05T06:47:25.472Z,1.30
2024-01-05T06:47:56.781Z,1.30
2024-01-05T06:48:27.775Z,1.30
2024-01-05T06:48:58.874Z,1.30
2024-01-05T06:49:29.621Z,1.30
2024-01-05T06:50:01.203Z,1.30
2024-01-05T06:50:33.820Z,1.30
2024-01-05T06:51:02.825Z,1.30
2024-01-05T06:51:33.533Z,1.20
2024-01-05T06:52:04.477Z,1.20
2024-01-05T06:52:35.536Z,1.20
2024-01-05T06:53:06.494Z,1.20
2024-01-05T06:53:37.487Z,1.20
2024-01-05T06:54:08.871Z,1.20
2024-01-05T06:54:39.521Z,1.20
2024-01-05T06:55:10.788Z,1.20
2024-01-05T06:55:41.572Z,1.20
2024-01-05T06:56:12.614Z,1.20
2024-01-05T06:56:43.509Z,1.20
2024-01-05T06:57:14.605Z,1.20
2024-01-05T06:57:45.521Z,1.20
2024-01-05T06:58:16.552Z,1.20
2024-01-05T06:58:47.500Z,1.20
2024-01-05T06:59:18.493Z,1.20
2024-01-05T06:59:49.527Z,1.30
2024-01-05T07:00:21.486Z,1.30
2024-01-05T07:00:51.672Z,1.30
2024-01-05T07:01:22.466Z,1.30
2024-01-05T07:01:53.502Z,1.30
2024-01-05T07:02:24.731Z,1.30
2024-01-05T07:02:56.080Z,1.30